sensor_id;sensor_type;location;lat;lon;timestamp;temperature;humidity
52058;DHT22;38063;53.210;6.504;2023-02-19T00:00:57;8.30;99.90
52058;DHT22;38063;53.210;6.504;2023-02-19T00:03:23;8.30;99.90
52058;DHT22;38063;53.210;6.504;2023-02-19T00:05:49;8.30;99.90
52058;DHT22;38063;53.210;6.504;2023-02-19T00:08:14;8.30;99.90
52058;DHT22;38063;53.210;6.504;2023-02-19T00:10:40;8.30;99.90
52058;DHT22;38063;53.210;6.504;2023-02-19T00:13:05;8.30;99.90
52058;DHT22;38063;53.210;6.504;2023-02-19T00:15:32;8.30;99.90
52058;DHT22;38063;53.210;6.504;2023-02-19T00:17:57;8.30;99.90
52058;DHT22;38063;53.210;6.504;2023-02-19T00:20:24;8.30;99.90
52058;DHT22;38063;53.210;6.504;2023-02-19T00:22:49;8.30;99.90
52058;DHT22;38063;53.210;6.504;2023-02-19T00:25:15;8.30;99.90
52058;DHT22;38063;53.210;6.504;2023-02-19T00:27:41;8.20;99.90
52058;DHT22;38063;53.210;6.504;2023-02-19T00:30:07;8.50;99.90
52058;DHT22;38063;53.210;6.504;2023-02-19T00:32:33;8.20;99.90
52058;DHT22;38063;53.210;6.504;2023-02-19T00:34:59;8.20;99.90
52058;DHT22;38063;53.210;6.504;2023-02-19T00:37:24;8.30;99.90
52058;DHT22;38063;53.210;6.504;2023-02-19T00:39:50;8.30;99.90
52058;DHT22;38063;53.210;6.504;2023-02-19T00:42:16;8.70;99.90
52058;DHT22;38063;53.210;6.504;2023-02-19T00:44:41;8.40;99.90
52058;DHT22;38063;53.210;6.504;2023-02-19T00:47:07;8.20;99.90
52058;DHT22;38063;53.210;6.504;2023-02-19T00:49:32;8.20;99.90
52058;DHT22;38063;53.210;6.504;2023-02-19T00:51:58;8.30;99.90
52058;DHT22;38063;53.210;6.504;2023-02-19T00:54:24;8.30;99.90
52058;DHT22;38063;53.210;6.504;2023-02-19T00:56:50;8.20;99.90
52058;DHT22;38063;53.210;6.504;2023-02-19T00:59:16;8.20;99.90
52058;DHT22;38063;53.210;6.504;2023-02-19T01:01:42;8.30;99.90
52058;DHT22;38063;53.210;6.504;2023-02-19T01:04:09;8.30;99.90
52058;DHT22;38063;53.210;6.504;2023-02-19T01:06:35;8.20;99.90
52058;DHT22;38063;53.210;6.504;2023-02-19T01:09:01;8.30;99.90
52058;DHT22;38063;53.210;6.504;2023-02-19T01:11:27;8.90;99.90
52058;DHT22;38063;53.210;6.504;2023-02-19T01:13:56;8.30;99.90
52058;DHT22;38063;53.210;6.504;2023-02-19T01:16:23;8.30;99.90
52058;DHT22;38063;53.210;6.504;2023-02-19T01:18:49;8.30;99.90
52058;DHT22;38063;53.210;6.504;2023-02-19T01:21:21;8.30;99.90
52058;DHT22;38063;53.210;6.504;2023-02-19T01:23:51;8.20;99.90
52058;DHT22;38063;53.210;6.504;2023-02-19T01:26:20;8.30;99.90
52058;DHT22;38063;53.210;6.504;2023-02-19T01:28:47;8.20;99.90
52058;DHT22;38063;53.210;6.504;2023-02-19T01:31:15;8.20;99.90
52058;DHT22;38063;53.210;6.504;2023-02-19T01:33:50;8.20;99.90
52058;DHT22;38063;53.210;6.504;2023-02-19T01:36:16;8.20;99.90
52058;DHT22;38063;53.210;6.504;2023-02-19T01:38:42;8.20;99.90
52058;DHT22;38063;53.210;6.504;2023-02-19T01:41:11;8.30;99.90
52058;DHT22;38063;53.210;6.504;2023-02-19T01:46:35;7.80;99.90
52058;DHT22;38063;53.210;6.504;2023-02-19T01:49:07;7.60;99.90
52058;DHT22;38063;53.210;6.504;2023-02-19T01:51:37;7.30;99.90
52058;DHT22;38063;53.210;6.504;2023-02-19T01:54:05;7.10;99.90
52058;DHT22;38063;53.210;6.504;2023-02-19T01:56:33;7.00;99.90
52058;DHT22;38063;53.210;6.504;2023-02-19T01:59:00;6.90;99.90
52058;DHT22;38063;53.210;6.504;2023-02-19T02:01:26;6.90;99.90
52058;DHT22;38063;53.210;6.504;2023-02-19T02:03:52;6.70;99.90
52058;DHT22;38063;53.210;6.504;2023-02-19T02:06:24;6.50;99.90
52058;DHT22;38063;53.210;6.504;2023-02-19T02:08:53;6.70;99.90
52058;DHT22;38063;53.210;6.504;2023-02-19T02:11:41;6.60;99.90
52058;DHT22;38063;53.210;6.504;2023-02-19T02:14:09;6.60;99.90
52058;DHT22;38063;53.210;6.504;2023-02-19T02:16:51;6.50;99.90
52058;DHT22;38063;53.210;6.504;2023-02-19T02:19:50;6.50;99.90
52058;DHT22;38063;53.210;6.504;2023-02-19T02:22:36;6.50;99.90
52058;DHT22;38063;53.210;6.504;2023-02-19T02:31:04;6.40;99.90
52058;DHT22;38063;53.210;6.504;2023-02-19T02:34:00;6.40;99.90
52058;DHT22;38063;53.210;6.504;2023-02-19T02:36:34;6.40;99.90
52058;DHT22;38063;53.210;6.504;2023-02-19T02:39:01;6.40;99.90
52058;DHT22;38063;53.210;6.504;2023-02-19T02:41:31;6.30;99.90
52058;DHT22;38063;53.210;6.504;2023-02-19T02:43:57;6.30;99.90
52058;DHT22;38063;53.210;6.504;2023-02-19T02:46:31;6.30;99.90
52058;DHT22;38063;53.210;6.504;2023-02-19T02:49:04;6.20;99.90
52058;DHT22;38063;53.210;6.504;2023-02-19T02:51:37;6.20;99.90
52058;DHT22;38063;53.210;6.504;2023-02-19T02:56:51;6.20;99.90
52058;DHT22;38063;53.210;6.504;2023-02-19T02:59:21;6.10;99.90
52058;DHT22;38063;53.210;6.504;2023-02-19T03:10:20;6.10;99.90
52058;DHT22;38063;53.210;6.504;2023-02-19T03:12:49;6.10;99.90
52058;DHT22;38063;53.210;6.504;2023-02-19T03:15:40;6.20;99.90
52058;DHT22;38063;53.210;6.504;2023-02-19T03:18:25;6.00;99.90
52058;DHT22;38063;53.210;6.504;2023-02-19T03:21:10;6.00;99.90
52058;DHT22;38063;53.210;6.504;2023-02-19T03:23:38;6.00;99.90
52058;DHT22;38063;53.210;6.504;2023-02-19T03:26:24;6.00;99.90
52058;DHT22;38063;53.210;6.504;2023-02-19T03:28:50;6.00;99.90
52058;DHT22;38063;53.210;6.504;2023-02-19T03:31:37;6.00;99.90
52058;DHT22;38063;53.210;6.504;2023-02-19T03:34:08;6.00;99.90
52058;DHT22;38063;53.210;6.504;2023-02-19T03:36:49;6.00;99.90
52058;DHT22;38063;53.210;6.504;2023-02-19T03:39:20;6.00;99.90
52058;DHT22;38063;53.210;6.504;2023-02-19T03:42:04;5.90;99.90
52058;DHT22;38063;53.210;6.504;2023-02-19T03:44:39;5.90;99.90
52058;DHT22;38063;53.210;6.504;2023-02-19T04:05:37;5.80;99.90
52058;DHT22;38063;53.210;6.504;2023-02-19T04:08:11;5.70;99.90
52058;DHT22;38063;53.210;6.504;2023-02-19T04:10:39;5.70;99.90
52058;DHT22;38063;53.210;6.504;2023-02-19T04:13:25;5.70;99.90
52058;DHT22;38063;53.210;6.504;2023-02-19T04:15:54;5.70;99.90
52058;DHT22;38063;53.210;6.504;2023-02-19T04:18:24;5.70;99.90
52058;DHT22;38063;53.210;6.504;2023-02-19T04:20:51;5.60;99.90
52058;DHT22;38063;53.210;6.504;2023-02-19T04:23:21;5.60;99.90
52058;DHT22;38063;53.210;6.504;2023-02-19T04:25:51;5.60;99.90
52058;DHT22;38063;53.210;6.504;2023-02-19T04:28:18;5.60;99.90
52058;DHT22;38063;53.210;6.504;2023-02-19T04:30:44;5.50;99.90
52058;DHT22;38063;53.210;6.504;2023-02-19T04:33:11;5.50;99.90
52058;DHT22;38063;53.210;6.504;2023-02-19T04:35:36;5.50;99.90
52058;DHT22;38063;53.210;6.504;2023-02-19T04:38:02;5.50;99.90
52058;DHT22;38063;53.210;6.504;2023-02-19T04:40:28;5.50;99.90
52058;DHT22;38063;53.210;6.504;2023-02-19T04:42:53;5.40;99.90
52058;DHT22;38063;53.210;6.504;2023-02-19T04:45:19;5.40;99.90
52058;DHT22;38063;53.210;6.504;2023-02-19T04:47:45;5.40;99.90
52058;DHT22;38063;53.210;6.504;2023-02-19T04:50:10;5.40;99.90
52058;DHT22;38063;53.210;6.504;2023-02-19T04:52:36;5.30;99.90
52058;DHT22;38063;53.210;6.504;2023-02-19T04:55:01;5.30;99.90
52058;DHT22;38063;53.210;6.504;2023-02-19T04:57:27;5.30;99.90
52058;DHT22;38063;53.210;6.504;2023-02-19T04:59:52;5.30;99.90
52058;DHT22;38063;53.210;6.504;2023-02-19T05:02:18;5.30;99.90
52058;DHT22;38063;53.210;6.504;2023-02-19T05:04:44;5.30;99.90
52058;DHT22;38063;53.210;6.504;2023-02-19T05:07:09;5.30;99.90
52058;DHT22;38063;53.210;6.504;2023-02-19T05:09:35;5.20;99.90
52058;DHT22;38063;53.210;6.504;2023-02-19T05:12:01;5.20;99.90
52058;DHT22;38063;53.210;6.504;2023-02-19T05:14:26;5.20;99.90
52058;DHT22;38063;53.210;6.504;2023-02-19T05:16:52;5.10;99.90
52058;DHT22;38063;53.210;6.504;2023-02-19T05:19:18;5.10;99.90
52058;DHT22;38063;53.210;6.504;2023-02-19T05:21:43;5.10;99.90
52058;DHT22;38063;53.210;6.504;2023-02-19T05:24:09;5.10;99.90
52058;DHT22;38063;53.210;6.504;2023-02-19T05:26:35;5.10;99.90
52058;DHT22;38063;53.210;6.504;2023-02-19T05:29:01;5.10;99.90
52058;DHT22;38063;53.210;6.504;2023-02-19T05:31:27;5.10;99.90
52058;DHT22;38063;53.210;6.504;2023-02-19T05:33:56;5.00;99.90
52058;DHT22;38063;53.210;6.504;2023-02-19T05:36:21;5.10;99.90
52058;DHT22;38063;53.210;6.504;2023-02-19T05:38:51;5.10;99.90
52058;DHT22;38063;53.210;6.504;2023-02-19T05:41:20;5.00;99.90
52058;DHT22;38063;53.210;6.504;2023-02-19T05:43:47;5.00;99.90
52058;DHT22;38063;53.210;6.504;2023-02-19T05:46:15;5.00;99.90
52058;DHT22;38063;53.210;6.504;2023-02-19T05:48:40;5.00;99.90
52058;DHT22;38063;53.210;6.504;2023-02-19T05:51:11;5.00;99.90
52058;DHT22;38063;53.210;6.504;2023-02-19T05:53:37;5.00;99.90
52058;DHT22;38063;53.210;6.504;2023-02-19T05:56:03;4.90;99.90
52058;DHT22;38063;53.210;6.504;2023-02-19T05:58:29;4.90;99.90
52058;DHT22;38063;53.210;6.504;2023-02-19T06:00:55;4.90;99.90
52058;DHT22;38063;53.210;6.504;2023-02-19T06:03:21;4.80;99.90
52058;DHT22;38063;53.210;6.504;2023-02-19T06:05:47;4.80;99.90
52058;DHT22;38063;53.210;6.504;2023-02-19T06:08:14;4.80;99.90
52058;DHT22;38063;53.210;6.504;2023-02-19T06:10:40;4.80;99.90
52058;DHT22;38063;53.210;6.504;2023-02-19T06:13:07;4.80;99.90
52058;DHT22;38063;53.210;6.504;2023-02-19T06:15:33;4.70;99.90
52058;DHT22;38063;53.210;6.504;2023-02-19T06:18:00;4.80;99.90
52058;DHT22;38063;53.210;6.504;2023-02-19T06:20:26;4.80;99.90
52058;DHT22;38063;53.210;6.504;2023-02-19T06:22:52;4.70;99.90
52058;DHT22;38063;53.210;6.504;2023-02-19T06:25:18;4.70;99.90
52058;DHT22;38063;53.210;6.504;2023-02-19T06:27:44;4.80;99.90
52058;DHT22;38063;53.210;6.504;2023-02-19T06:30:10;4.70;99.90
52058;DHT22;38063;53.210;6.504;2023-02-19T06:32:35;4.70;99.90
52058;DHT22;38063;53.210;6.504;2023-02-19T06:35:02;4.70;99.90
52058;DHT22;38063;53.210;6.504;2023-02-19T06:37:28;4.70;99.90
52058;DHT22;38063;53.210;6.504;2023-02-19T06:39:53;4.70;99.90
52058;DHT22;38063;53.210;6.504;2023-02-19T06:42:19;4.70;99.90
52058;DHT22;38063;53.210;6.504;2023-02-19T06:44:45;4.70;99.90
52058;DHT22;38063;53.210;6.504;2023-02-19T06:47:10;4.70;99.90
52058;DHT22;38063;53.210;6.504;2023-02-19T06:49:38;4.70;99.90
52058;DHT22;38063;53.210;6.504;2023-02-19T06:52:04;4.60;99.90
52058;DHT22;38063;53.210;6.504;2023-02-19T06:54:30;4.60;99.90
52058;DHT22;38063;53.210;6.504;2023-02-19T06:56:56;4.60;99.90
52058;DHT22;38063;53.210;6.504;2023-02-19T06:59:23;4.60;99.90
52058;DHT22;38063;53.210;6.504;2023-02-19T07:01:49;4.60;99.90
52058;DHT22;38063;53.210;6.504;2023-02-19T07:04:15;4.70;99.90
52058;DHT22;38063;53.210;6.504;2023-02-19T07:06:41;4.70;99.90
52058;DHT22;38063;53.210;6.504;2023-02-19T07:09:07;5.20;99.90
52058;DHT22;38063;53.210;6.504;2023-02-19T07:11:35;4.70;99.90
52058;DHT22;38063;53.210;6.504;2023-02-19T07:14:04;4.70;99.90
52058;DHT22;38063;53.210;6.504;2023-02-19T07:16:30;4.70;99.90
52058;DHT22;38063;53.210;6.504;2023-02-19T07:18:57;4.70;99.90
52058;DHT22;38063;53.210;6.504;2023-02-19T07:21:23;4.70;99.90
52058;DHT22;38063;53.210;6.504;2023-02-19T07:23:48;4.70;99.90
52058;DHT22;38063;53.210;6.504;2023-02-19T07:26:16;4.70;99.90
52058;DHT22;38063;53.210;6.504;2023-02-19T07:28:43;5.20;99.90
52058;DHT22;38063;53.210;6.504;2023-02-19T07:31:09;4.70;99.90
52058;DHT22;38063;53.210;6.504;2023-02-19T07:33:34;4.70;99.90
52058;DHT22;38063;53.210;6.504;2023-02-19T07:36:00;4.60;99.90
52058;DHT22;38063;53.210;6.504;2023-02-19T07:38:26;4.60;99.90
52058;DHT22;38063;53.210;6.504;2023-02-19T07:40:57;4.60;99.90
52058;DHT22;38063;53.210;6.504;2023-02-19T07:43:24;4.70;99.90
52058;DHT22;38063;53.210;6.504;2023-02-19T07:45:50;4.60;99.90
52058;DHT22;38063;53.210;6.504;2023-02-19T07:48:16;4.70;99.90
52058;DHT22;38063;53.210;6.504;2023-02-19T07:50:57;5.00;99.90
52058;DHT22;38063;53.210;6.504;2023-02-19T07:53:24;4.60;99.90
52058;DHT22;38063;53.210;6.504;2023-02-19T07:55:50;4.60;99.90
52058;DHT22;38063;53.210;6.504;2023-02-19T07:58:16;4.60;99.90
52058;DHT22;38063;53.210;6.504;2023-02-19T08:00:42;4.60;99.90
52058;DHT22;38063;53.210;6.504;2023-02-19T08:03:08;4.60;99.90
52058;DHT22;38063;53.210;6.504;2023-02-19T08:05:37;4.60;99.90
52058;DHT22;38063;53.210;6.504;2023-02-19T08:08:07;4.60;99.90
52058;DHT22;38063;53.210;6.504;2023-02-19T08:10:34;4.60;99.90
52058;DHT22;38063;53.210;6.504;2023-02-19T08:13:18;4.60;99.90
52058;DHT22;38063;53.210;6.504;2023-02-19T08:18:27;4.60;99.90
52058;DHT22;38063;53.210;6.504;2023-02-19T08:20:56;4.60;99.90
52058;DHT22;38063;53.210;6.504;2023-02-19T08:23:23;4.60;99.90
52058;DHT22;38063;53.210;6.504;2023-02-19T08:25:49;4.60;99.90
52058;DHT22;38063;53.210;6.504;2023-02-19T08:28:16;4.60;99.90
52058;DHT22;38063;53.210;6.504;2023-02-19T08:30:43;4.60;99.90
52058;DHT22;38063;53.210;6.504;2023-02-19T08:33:11;4.60;99.90
52058;DHT22;38063;53.210;6.504;2023-02-19T08:35:37;4.60;99.90
52058;DHT22;38063;53.210;6.504;2023-02-19T08:38:04;4.60;99.90
52058;DHT22;38063;53.210;6.504;2023-02-19T08:40:30;4.60;99.90
52058;DHT22;38063;53.210;6.504;2023-02-19T08:43:04;4.60;99.90
52058;DHT22;38063;53.210;6.504;2023-02-19T08:45:30;4.60;99.90
52058;DHT22;38063;53.210;6.504;2023-02-19T08:47:56;4.60;99.90
52058;DHT22;38063;53.210;6.504;2023-02-19T08:50:22;4.60;99.90
52058;DHT22;38063;53.210;6.504;2023-02-19T08:52:48;4.70;99.90
52058;DHT22;38063;53.210;6.504;2023-02-19T08:55:13;4.70;99.90
52058;DHT22;38063;53.210;6.504;2023-02-19T08:57:39;4.70;99.90
52058;DHT22;38063;53.210;6.504;2023-02-19T09:00:06;4.70;99.90
52058;DHT22;38063;53.210;6.504;2023-02-19T09:02:32;4.70;99.90
52058;DHT22;38063;53.210;6.504;2023-02-19T09:04:57;4.70;99.90
52058;DHT22;38063;53.210;6.504;2023-02-19T09:07:23;4.80;99.90
52058;DHT22;38063;53.210;6.504;2023-02-19T09:09:49;4.80;99.90
52058;DHT22;38063;53.210;6.504;2023-02-19T09:12:14;4.80;99.90
52058;DHT22;38063;53.210;6.504;2023-02-19T09:14:40;4.90;99.90
52058;DHT22;38063;53.210;6.504;2023-02-19T09:17:07;5.00;99.90
52058;DHT22;38063;53.210;6.504;2023-02-19T09:19:34;5.00;99.90
52058;DHT22;38063;53.210;6.504;2023-02-19T09:22:00;5.30;99.90
52058;DHT22;38063;53.210;6.504;2023-02-19T09:24:26;5.10;99.90
52058;DHT22;38063;53.210;6.504;2023-02-19T09:26:53;5.10;99.90
52058;DHT22;38063;53.210;6.504;2023-02-19T09:29:20;5.10;99.90
52058;DHT22;38063;53.210;6.504;2023-02-19T09:31:46;5.20;99.90
52058;DHT22;38063;53.210;6.504;2023-02-19T09:34:11;5.20;99.90
52058;DHT22;38063;53.210;6.504;2023-02-19T09:36:38;5.30;99.90
52058;DHT22;38063;53.210;6.504;2023-02-19T09:39:05;5.40;99.90
52058;DHT22;38063;53.210;6.504;2023-02-19T09:41:33;5.40;99.90
52058;DHT22;38063;53.210;6.504;2023-02-19T09:44:01;5.50;99.90
52058;DHT22;38063;53.210;6.504;2023-02-19T09:49:12;5.60;99.90
52058;DHT22;38063;53.210;6.504;2023-02-19T09:51:42;5.70;99.90
52058;DHT22;38063;53.210;6.504;2023-02-19T09:54:17;5.80;99.90
52058;DHT22;38063;53.210;6.504;2023-02-19T09:56:44;5.90;99.90
52058;DHT22;38063;53.210;6.504;2023-02-19T09:59:24;6.00;99.90
52058;DHT22;38063;53.210;6.504;2023-02-19T10:01:56;6.00;99.90
52058;DHT22;38063;53.210;6.504;2023-02-19T10:04:23;6.00;99.90
52058;DHT22;38063;53.210;6.504;2023-02-19T10:06:50;6.00;99.90
52058;DHT22;38063;53.210;6.504;2023-02-19T10:09:18;6.00;99.90
52058;DHT22;38063;53.210;6.504;2023-02-19T10:11:46;6.00;99.90
52058;DHT22;38063;53.210;6.504;2023-02-19T10:14:16;6.40;99.90
52058;DHT22;38063;53.210;6.504;2023-02-19T10:16:45;6.10;99.90
52058;DHT22;38063;53.210;6.504;2023-02-19T10:19:13;6.20;99.90
52058;DHT22;38063;53.210;6.504;2023-02-19T10:21:39;6.40;99.90
52058;DHT22;38063;53.210;6.504;2023-02-19T10:24:06;6.50;99.90
52058;DHT22;38063;53.210;6.504;2023-02-19T10:26:32;6.60;99.90
52058;DHT22;38063;53.210;6.504;2023-02-19T10:29:04;6.70;99.90
52058;DHT22;38063;53.210;6.504;2023-02-19T10:31:31;6.60;99.90
52058;DHT22;38063;53.210;6.504;2023-02-19T10:33:59;6.80;99.90
52058;DHT22;38063;53.210;6.504;2023-02-19T10:38:52;6.70;99.90
52058;DHT22;38063;53.210;6.504;2023-02-19T10:41:20;6.70;99.90
52058;DHT22;38063;53.210;6.504;2023-02-19T10:44:08;6.70;99.90
52058;DHT22;38063;53.210;6.504;2023-02-19T10:46:36;6.60;99.90
52058;DHT22;38063;53.210;6.504;2023-02-19T10:49:16;6.60;99.90
52058;DHT22;38063;53.210;6.504;2023-02-19T10:51:44;6.50;99.90
52058;DHT22;38063;53.210;6.504;2023-02-19T10:54:48;6.50;99.90
52058;DHT22;38063;53.210;6.504;2023-02-19T11:00:37;6.60;99.90
52058;DHT22;38063;53.210;6.504;2023-02-19T11:03:20;6.70;99.90
52058;DHT22;38063;53.210;6.504;2023-02-19T11:06:01;6.80;99.90
52058;DHT22;38063;53.210;6.504;2023-02-19T11:08:28;6.90;99.90
52058;DHT22;38063;53.210;6.504;2023-02-19T11:10:54;7.10;99.90
52058;DHT22;38063;53.210;6.504;2023-02-19T11:13:32;7.10;99.90
52058;DHT22;38063;53.210;6.504;2023-02-19T11:16:02;7.20;99.90
52058;DHT22;38063;53.210;6.504;2023-02-19T11:18:32;7.20;99.90
52058;DHT22;38063;53.210;6.504;2023-02-19T11:21:03;7.30;99.90
52058;DHT22;38063;53.210;6.504;2023-02-19T11:23:36;7.30;99.90
52058;DHT22;38063;53.210;6.504;2023-02-19T11:26:05;7.30;99.90
52058;DHT22;38063;53.210;6.504;2023-02-19T11:28:40;7.30;99.90
52058;DHT22;38063;53.210;6.504;2023-02-19T11:31:27;7.30;99.90
52058;DHT22;38063;53.210;6.504;2023-02-19T11:34:01;7.40;99.90
52058;DHT22;38063;53.210;6.504;2023-02-19T11:38:55;7.50;99.90
52058;DHT22;38063;53.210;6.504;2023-02-19T11:42:07;8.00;99.90
52058;DHT22;38063;53.210;6.504;2023-02-19T11:53:08;8.00;99.90
52058;DHT22;38063;53.210;6.504;2023-02-19T12:01:00;8.00;99.90
52058;DHT22;38063;53.210;6.504;2023-02-19T12:20:29;7.80;99.90
52058;DHT22;38063;53.210;6.504;2023-02-19T12:37:33;8.30;99.90
52058;DHT22;38063;53.210;6.504;2023-02-19T12:40:27;8.20;99.90
52058;DHT22;38063;53.210;6.504;2023-02-19T12:43:17;8.00;99.90
52058;DHT22;38063;53.210;6.504;2023-02-19T12:46:00;8.00;99.90
52058;DHT22;38063;53.210;6.504;2023-02-19T12:51:29;8.00;99.90
52058;DHT22;38063;53.210;6.504;2023-02-19T12:56:33;8.00;99.90
52058;DHT22;38063;53.210;6.504;2023-02-19T12:59:14;8.10;99.90
52058;DHT22;38063;53.210;6.504;2023-02-19T13:01:51;8.20;99.90
52058;DHT22;38063;53.210;6.504;2023-02-19T13:07:43;8.30;99.90
52058;DHT22;38063;53.210;6.504;2023-02-19T13:12:41;8.40;99.90
52058;DHT22;38063;53.210;6.504;2023-02-19T13:15:37;8.40;99.90
52058;DHT22;38063;53.210;6.504;2023-02-19T13:18:11;8.50;99.90
52058;DHT22;38063;53.210;6.504;2023-02-19T13:20:42;8.50;99.90
52058;DHT22;38063;53.210;6.504;2023-02-19T13:34:19;8.30;99.90
52058;DHT22;38063;53.210;6.504;2023-02-19T13:36:49;8.30;99.90
52058;DHT22;38063;53.210;6.504;2023-02-19T13:39:16;8.20;99.90
52058;DHT22;38063;53.210;6.504;2023-02-19T13:41:50;8.30;99.90
52058;DHT22;38063;53.210;6.504;2023-02-19T13:44:32;8.40;99.90
52058;DHT22;38063;53.210;6.504;2023-02-19T13:46:58;8.50;99.90
52058;DHT22;38063;53.210;6.504;2023-02-19T13:52:18;8.40;99.90
52058;DHT22;38063;53.210;6.504;2023-02-19T13:54:48;8.40;99.90
52058;DHT22;38063;53.210;6.504;2023-02-19T13:59:43;8.40;99.90
52058;DHT22;38063;53.210;6.504;2023-02-19T14:04:55;8.40;99.90
52058;DHT22;38063;53.210;6.504;2023-02-19T14:07:37;8.30;99.90
52058;DHT22;38063;53.210;6.504;2023-02-19T14:10:30;8.30;99.90
52058;DHT22;38063;53.210;6.504;2023-02-19T14:12:59;8.30;99.90
52058;DHT22;38063;53.210;6.504;2023-02-19T14:15:39;8.40;99.90
52058;DHT22;38063;53.210;6.504;2023-02-19T14:18:42;8.60;99.90
52058;DHT22;38063;53.210;6.504;2023-02-19T14:21:17;8.70;99.90
52058;DHT22;38063;53.210;6.504;2023-02-19T14:23:52;8.80;99.90
52058;DHT22;38063;53.210;6.504;2023-02-19T14:26:19;8.90;99.90
52058;DHT22;38063;53.210;6.504;2023-02-19T14:28:46;8.90;99.90
52058;DHT22;38063;53.210;6.504;2023-02-19T14:31:28;8.80;99.90
52058;DHT22;38063;53.210;6.504;2023-02-19T14:33:59;8.70;99.90
52058;DHT22;38063;53.210;6.504;2023-02-19T14:39:09;8.50;99.90
52058;DHT22;38063;53.210;6.504;2023-02-19T14:41:38;8.40;99.90
52058;DHT22;38063;53.210;6.504;2023-02-19T14:44:11;8.30;99.90
52058;DHT22;38063;53.210;6.504;2023-02-19T14:46:56;8.30;99.90
52058;DHT22;38063;53.210;6.504;2023-02-19T14:52:05;8.40;99.90
52058;DHT22;38063;53.210;6.504;2023-02-19T14:54:42;8.60;99.90
52058;DHT22;38063;53.210;6.504;2023-02-19T14:57:23;8.40;99.90
52058;DHT22;38063;53.210;6.504;2023-02-19T15:00:02;8.40;99.90
52058;DHT22;38063;53.210;6.504;2023-02-19T15:02:30;8.40;99.90
52058;DHT22;38063;53.210;6.504;2023-02-19T15:04:56;8.30;99.90
52058;DHT22;38063;53.210;6.504;2023-02-19T15:07:27;8.30;99.90
52058;DHT22;38063;53.210;6.504;2023-02-19T15:09:57;8.30;99.90
52058;DHT22;38063;53.210;6.504;2023-02-19T15:12:32;8.30;99.90
52058;DHT22;38063;53.210;6.504;2023-02-19T15:15:02;8.20;99.90
52058;DHT22;38063;53.210;6.504;2023-02-19T15:17:31;8.10;99.90
52058;DHT22;38063;53.210;6.504;2023-02-19T15:20:01;8.00;99.90
52058;DHT22;38063;53.210;6.504;2023-02-19T15:22:29;8.00;99.90
52058;DHT22;38063;53.210;6.504;2023-02-19T15:25:03;8.00;99.90
52058;DHT22;38063;53.210;6.504;2023-02-19T15:27:29;8.00;99.90
52058;DHT22;38063;53.210;6.504;2023-02-19T15:29:57;9.40;99.90
52058;DHT22;38063;53.210;6.504;2023-02-19T15:32:25;8.10;99.90
52058;DHT22;38063;53.210;6.504;2023-02-19T15:34:56;8.10;99.90
52058;DHT22;38063;53.210;6.504;2023-02-19T15:37:24;8.10;99.90
52058;DHT22;38063;53.210;6.504;2023-02-19T15:39:52;8.10;99.90
52058;DHT22;38063;53.210;6.504;2023-02-19T15:42:25;8.10;99.90
52058;DHT22;38063;53.210;6.504;2023-02-19T15:48:11;8.00;99.90
52058;DHT22;38063;53.210;6.504;2023-02-19T15:50:46;7.90;99.90
52058;DHT22;38063;53.210;6.504;2023-02-19T15:53:22;7.90;99.90
52058;DHT22;38063;53.210;6.504;2023-02-19T15:56:20;7.80;99.90
52058;DHT22;38063;53.210;6.504;2023-02-19T15:59:01;7.70;99.90
52058;DHT22;38063;53.210;6.504;2023-02-19T16:01:34;7.70;99.90
52058;DHT22;38063;53.210;6.504;2023-02-19T16:04:00;7.60;99.90
52058;DHT22;38063;53.210;6.504;2023-02-19T16:06:27;7.50;99.90
52058;DHT22;38063;53.210;6.504;2023-02-19T16:11:59;7.30;99.90
52058;DHT22;38063;53.210;6.504;2023-02-19T16:14:33;7.20;99.90
52058;DHT22;38063;53.210;6.504;2023-02-19T16:19:58;7.10;99.90
52058;DHT22;38063;53.210;6.504;2023-02-19T16:22:30;7.00;99.90
52058;DHT22;38063;53.210;6.504;2023-02-19T16:25:04;6.90;99.90
52058;DHT22;38063;53.210;6.504;2023-02-19T16:27:41;6.80;99.90
52058;DHT22;38063;53.210;6.504;2023-02-19T16:30:31;6.70;99.90
52058;DHT22;38063;53.210;6.504;2023-02-19T16:35:51;6.60;99.90
52058;DHT22;38063;53.210;6.504;2023-02-19T16:38:19;6.50;99.90
52058;DHT22;38063;53.210;6.504;2023-02-19T16:45:46;6.40;99.90
52058;DHT22;38063;53.210;6.504;2023-02-19T16:48:12;6.30;99.90
52058;DHT22;38063;53.210;6.504;2023-02-19T16:50:39;6.20;99.90
52058;DHT22;38063;53.210;6.504;2023-02-19T16:53:22;6.20;99.90
52058;DHT22;38063;53.210;6.504;2023-02-19T16:55:50;6.10;99.90
52058;DHT22;38063;53.210;6.504;2023-02-19T16:58:16;6.00;99.90
52058;DHT22;38063;53.210;6.504;2023-02-19T17:00:42;6.00;99.90
52058;DHT22;38063;53.210;6.504;2023-02-19T17:03:10;5.90;99.90
52058;DHT22;38063;53.210;6.504;2023-02-19T17:05:37;5.90;99.90
52058;DHT22;38063;53.210;6.504;2023-02-19T17:08:33;5.80;99.90
52058;DHT22;38063;53.210;6.504;2023-02-19T17:11:01;5.80;99.90
52058;DHT22;38063;53.210;6.504;2023-02-19T17:13:28;5.70;99.90
52058;DHT22;38063;53.210;6.504;2023-02-19T17:15:54;5.70;99.90
52058;DHT22;38063;53.210;6.504;2023-02-19T17:18:20;5.70;99.90
52058;DHT22;38063;53.210;6.504;2023-02-19T17:20:57;5.60;99.90
52058;DHT22;38063;53.210;6.504;2023-02-19T17:23:22;5.60;99.90
52058;DHT22;38063;53.210;6.504;2023-02-19T17:25:48;5.50;99.90
52058;DHT22;38063;53.210;6.504;2023-02-19T17:28:14;5.50;99.90
52058;DHT22;38063;53.210;6.504;2023-02-19T17:30:39;5.50;99.90
52058;DHT22;38063;53.210;6.504;2023-02-19T17:33:05;5.40;99.90
52058;DHT22;38063;53.210;6.504;2023-02-19T17:35:31;5.40;99.90
52058;DHT22;38063;53.210;6.504;2023-02-19T17:37:56;5.40;99.90
52058;DHT22;38063;53.210;6.504;2023-02-19T17:40:27;5.30;99.90
52058;DHT22;38063;53.210;6.504;2023-02-19T17:42:53;5.30;99.90
52058;DHT22;38063;53.210;6.504;2023-02-19T17:45:18;5.30;99.90
52058;DHT22;38063;53.210;6.504;2023-02-19T17:47:44;5.20;99.90
52058;DHT22;38063;53.210;6.504;2023-02-19T17:50:13;5.20;99.90
52058;DHT22;38063;53.210;6.504;2023-02-19T17:52:40;5.20;99.90
52058;DHT22;38063;53.210;6.504;2023-02-19T17:55:05;5.20;99.90
52058;DHT22;38063;53.210;6.504;2023-02-19T17:57:31;5.10;99.90
52058;DHT22;38063;53.210;6.504;2023-02-19T17:59:58;5.10;99.90
52058;DHT22;38063;53.210;6.504;2023-02-19T18:02:24;5.10;99.90
52058;DHT22;38063;53.210;6.504;2023-02-19T18:04:50;5.10;99.90
52058;DHT22;38063;53.210;6.504;2023-02-19T18:07:15;5.10;99.90
52058;DHT22;38063;53.210;6.504;2023-02-19T18:09:41;5.10;99.90
52058;DHT22;38063;53.210;6.504;2023-02-19T18:12:07;5.10;99.90
52058;DHT22;38063;53.210;6.504;2023-02-19T18:14:33;5.10;99.90
52058;DHT22;38063;53.210;6.504;2023-02-19T18:16:58;5.10;99.90
52058;DHT22;38063;53.210;6.504;2023-02-19T18:19:24;5.10;99.90
52058;DHT22;38063;53.210;6.504;2023-02-19T18:21:50;5.10;99.90
52058;DHT22;38063;53.210;6.504;2023-02-19T18:24:16;5.20;99.90
52058;DHT22;38063;53.210;6.504;2023-02-19T18:26:44;5.10;99.90
52058;DHT22;38063;53.210;6.504;2023-02-19T18:29:11;5.20;99.90
52058;DHT22;38063;53.210;6.504;2023-02-19T18:31:36;5.40;99.90